Flight Track Log - Related Links

Times and Time Zones

All times are in EDT time to prevent confusion due to time zone crossing. See the TAM3035 flight status page for this flight to view local times or setup timezone preferences in your user account.

Time Position Orientation Groundspeed Altitude Reporting Facility
EDT Latitude Longitude Course Direction KTS MPH feet Rate Location/Type
Fri 09:22:00 AM -23.8790 -46.8585 216° Southwest  Level Estimated
Fri 09:23:00 AM -23.9210 -46.8924 216° Southwest  Level Estimated
Fri 09:24:00 AM -23.9631 -46.9264 216° Southwest  Level Estimated
Fri 09:25:00 AM -24.0051 -46.9603 216° Southwest  Level Estimated
Fri 09:26:00 AM -24.0471 -46.9943 216° Southwest  Level Estimated
Fri 09:27:00 AM -24.0891 -47.0283 216° Southwest  Level Estimated
Fri 09:28:00 AM -24.1311 -47.0624 216° Southwest  Level Estimated
Fri 09:29:00 AM -24.1730 -47.0964 217° Southwest  Level Estimated
Fri 09:30:00 AM -24.2150 -47.1305 217° Southwest  Level Estimated
Fri 09:31:00 AM -24.2570 -47.1646 217° Southwest  Level Estimated
Fri 09:32:00 AM -24.2989 -47.1988 217° Southwest  Level Estimated
Fri 09:33:00 AM -24.3409 -47.2329 217° Southwest  Level Estimated
Fri 09:34:00 AM -24.3828 -47.2671 217° Southwest  Level Estimated
Fri 09:35:00 AM -24.4248 -47.3013 217° Southwest  Level Estimated
Fri 09:36:00 AM -24.4667 -47.3355 217° Southwest  Level Estimated
Fri 09:37:00 AM -24.5086 -47.3697 217° Southwest  Level Estimated
Fri 09:38:00 AM -24.5505 -47.4040 217° Southwest  Level Estimated
Fri 09:39:00 AM -24.5924 -47.4383 217° Southwest  Level Estimated
Fri 09:40:00 AM -24.6343 -47.4726 217° Southwest  Level Estimated
Fri 09:41:00 AM -24.6762 -47.5069 217° Southwest  Level Estimated
Fri 09:42:00 AM -24.7181 -47.5413 217° Southwest  Level Estimated
Fri 09:43:00 AM -24.7600 -47.5757 217° Southwest  Level Estimated
Fri 09:44:00 AM -24.8018 -47.6101 217° Southwest  Level Estimated
Fri 09:45:00 AM -24.8437 -47.6445 217° Southwest  Level Estimated
Fri 09:46:00 AM -24.8856 -47.6790 217° Southwest  Level Estimated
Fri 09:47:00 AM -24.9274 -47.7134 217° Southwest  Level Estimated
Fri 09:48:00 AM -24.9692 -47.7479 217° Southwest  Level Estimated
Fri 09:49:00 AM -25.0111 -47.7825 217° Southwest  Level Estimated
Fri 09:50:00 AM -25.0529 -47.8170 217° Southwest  Level Estimated
Fri 09:51:00 AM -25.0947 -47.8516 217° Southwest  Level Estimated
Fri 09:52:00 AM -25.1365 -47.8862 217° Southwest  Level Estimated
Fri 09:53:00 AM -25.1783 -47.9208 217° Southwest  Level Estimated
Fri 09:54:00 AM -25.2201 -47.9554 217° Southwest  Level Estimated
Fri 09:55:00 AM -25.2619 -47.9901 217° Southwest  Level Estimated
Fri 09:56:00 AM -25.3036 -48.0247 217° Southwest  Level Estimated
Fri 09:57:00 AM -25.3454 -48.0595 217° Southwest  Level Estimated
Fri 09:58:00 AM -25.3871 -48.0942 217° Southwest  Level Estimated
Fri 09:59:00 AM -25.4289 -48.1289 217° Southwest  Level Estimated
Fri 10:00:00 AM -25.4706 -48.1637 217° Southwest  Level Estimated
Fri 10:01:00 AM -25.5124 -48.1985 217° Southwest  Level Estimated
Fri 10:02:00 AM -25.5541 -48.2334 217° Southwest  Level Estimated
Fri 10:03:00 AM -25.5958 -48.2682 217° Southwest  Level Estimated
Fri 10:04:00 AM -25.6375 -48.3031 217° Southwest  Level Estimated
Fri 10:05:00 AM -25.6792 -48.3380 217° Southwest  Level Estimated
Fri 10:06:00 AM -25.7209 -48.3729 217° Southwest  Level Estimated
Fri 10:07:00 AM -25.7626 -48.4079 217° Southwest  Level Estimated
Fri 10:08:00 AM -25.8042 -48.4429 217° Southwest  Level Estimated
Fri 10:09:00 AM -25.8459 -48.4779 217° Southwest  Level Estimated
Fri 10:10:00 AM -25.8875 -48.5129 217° Southwest  Level Estimated
Fri 10:11:00 AM -25.9292 -48.5479 217° Southwest  Level Estimated
Fri 10:12:00 AM -25.9708 -48.5830 217° Southwest  Level Estimated
Fri 10:13:00 AM -26.0124 -48.6181 217° Southwest  Level Estimated
Fri 10:14:00 AM -26.0541 -48.6532 217° Southwest  Level Estimated
Fri 10:15:00 AM -26.0957 -48.6884 217° Southwest  Level Estimated
Fri 10:16:00 AM -26.1373 -48.7236 217° Southwest  Level Estimated
Fri 10:17:00 AM -26.1789 -48.7588 217° Southwest  Level Estimated
Fri 10:18:00 AM -26.2205 -48.7940 217° Southwest  Level Estimated
Fri 10:19:00 AM -26.2244 -48.7973 217° Southwest  Level Estimated
Fri 10:20:00 AM -26.2244 -48.7973 347° North  Level Estimated
Fri 10:21:00 AM -26.2244 -48.7973 347° North  Level Estimated
Fri 10:22:00 AM -26.2244 -48.7973 347° North  Level Estimated
Fri 10:23:00 AM -26.2244 -48.7973 347° North  Level Estimated
Fri 10:24:00 AM -26.2244 -48.7973 347° North  Level Estimated
Fri 10:25:00 AM -26.2244 -48.7973 347° North  Level Estimated
Fri 10:26:00 AM -26.2244 -48.7973 347° North  Level Estimated
Fri 10:27:00 AM -26.2244 -48.7973 347° North  Level Estimated
Fri 10:28:00 AM -26.2244 -48.7973 347° North  Level Estimated
Fri 10:29:00 AM -26.2244 -48.7973 347° North  Level Estimated
Fri 10:30:00 AM -26.2244 -48.7973 347° North  Level Estimated
Fri 10:31:00 AM -26.2244 -48.7973 347° North  Level Estimated
Fri 10:32:00 AM -26.2244 -48.7973 347° North  Level Estimated
Fri 10:33:00 AM -26.2244 -48.7973 347° North  Level Estimated
Fri 10:34:00 AM -26.2244 -48.7973 347° North  Level Estimated

Login

Don't have an account? Register now (free) for customized features, flight alerts, and more!